Time;durP1;ratioP1;P1;durP2;ratioP2;P2;SDS_P1;SDS_P2;PMS_P1;PMS_P2;Temp;Humidity;BMP_temperature;BMP_pressure;BME280_temperature;BME280_humidity;BME280_pressure;Samples;Min_cycle;Max_cycle;Signal;HPM_P1;HPM_P2
2022/02/22 00:02:25;;;;;;;0.20;0.20;;;;;;;7.75;85.88;100146.81;5012724;28;20452;-50
2022/02/22 00:04:51;;;;;;;0.30;0.20;;;;;;;7.79;86.04;100167.88;5012432;28;20493;-50
2022/02/22 00:07:18;;;;;;;0.20;0.10;;;;;;;7.63;87.88;100182.28;5012734;28;20448;-50
2022/02/22 00:09:45;;;;;;;0.30;0.20;;;;;;;7.56;89.84;100196.53;5012450;28;20550;-50
2022/02/22 00:12:11;;;;;;;0.20;0.10;;;;;;;7.52;91.40;100190.41;5012706;28;20483;-50
2022/02/22 00:14:38;;;;;;;0.20;0.10;;;;;;;7.38;91.71;100188.00;5012534;28;20934;-51
2022/02/22 00:17:05;;;;;;;0.20;0.10;;;;;;;7.31;93.56;100196.97;5012397;28;20996;-50
2022/02/22 00:19:31;;;;;;;0.20;0.17;;;;;;;7.28;92.81;100204.94;5012083;28;20511;-50
2022/02/22 00:21:58;;;;;;;0.20;0.20;;;;;;;7.16;93.31;100193.69;5012454;28;20529;-50
2022/02/22 00:24:25;;;;;;;0.20;0.20;;;;;;;7.23;92.43;100209.41;5012234;28;20484;-50
2022/02/22 00:26:51;;;;;;;0.20;0.20;;;;;;;7.19;93.22;100214.78;5012134;28;20452;-50
2022/02/22 00:29:18;;;;;;;0.30;0.20;;;;;;;7.22;93.10;100225.31;5012087;28;21113;-51
2022/02/22 00:31:46;;;;;;;0.20;0.10;;;;;;;7.15;93.76;100221.91;5012217;28;20976;-50
2022/02/22 00:34:12;;;;;;;0.20;0.10;;;;;;;7.19;91.88;100228.00;5012181;28;20507;-50
2022/02/22 00:36:39;;;;;;;0.20;0.20;;;;;;;7.09;92.13;100220.22;5012320;28;20456;-50
2022/02/22 00:39:06;;;;;;;0.20;0.20;;;;;;;7.30;90.91;100229.59;5011876;28;20480;-50
2022/02/22 00:41:33;;;;;;;0.30;0.20;;;;;;;7.17;90.73;100230.69;5012083;28;20449;-50
2022/02/22 00:43:59;;;;;;;0.20;0.20;;;;;;;7.36;90.50;100224.19;5014834;28;20997;-53
2022/02/22 00:46:26;;;;;;;0.20;0.20;;;;;;;7.24;90.60;100245.53;5015516;28;20488;-51
2022/02/22 00:48:53;;;;;;;0.20;0.20;;;;;;;7.17;90.04;100243.91;5015570;28;20472;-50
2022/02/22 00:51:19;;;;;;;0.20;0.20;;;;;;;7.15;91.23;100239.53;5015511;28;21004;-50
2022/02/22 00:53:46;;;;;;;0.20;0.20;;;;;;;7.05;91.26;100241.44;5015508;28;21012;-50
2022/02/22 00:56:13;;;;;;;0.20;0.10;;;;;;;7.05;91.46;100244.06;5015454;28;20456;-50
2022/02/22 00:58:39;;;;;;;0.30;0.20;;;;;;;7.12;89.36;100248.34;5015555;28;20468;-51
2022/02/22 01:01:06;;;;;;;0.20;0.10;;;;;;;7.16;90.05;100252.72;5015619;28;20457;-50
2022/02/22 01:03:33;;;;;;;0.30;0.20;;;;;;;7.06;87.93;100253.75;5015227;28;20510;-50
2022/02/22 01:05:59;;;;;;;0.20;0.10;;;;;;;7.28;86.00;100265.75;5014291;28;20452;-50
2022/02/22 01:08:26;;;;;;;0.20;0.10;;;;;;;7.42;85.54;100255.84;5015187;28;20507;-50
2022/02/22 01:10:52;;;;;;;0.20;0.10;;;;;;;7.29;87.05;100262.22;5015231;28;20469;-50
2022/02/22 01:13:21;;;;;;;0.20;0.20;;;;;;;7.25;84.73;100276.34;5015382;28;20453;-50
2022/02/22 01:15:48;;;;;;;0.30;0.30;;;;;;;7.25;86.97;100280.78;5015328;28;20527;-51
2022/02/22 01:18:15;;;;;;;0.20;0.17;;;;;;;7.20;86.38;100279.97;5015203;28;21000;-50
2022/02/22 01:20:42;;;;;;;0.20;0.10;;;;;;;7.30;86.98;100282.47;5014951;28;20479;-50
2022/02/22 01:23:11;;;;;;;0.20;0.20;;;;;;;7.21;87.34;100294.94;5014935;28;20454;-51
2022/02/22 01:25:38;;;;;;;0.20;0.20;;;;;;;7.16;87.04;100302.94;5015175;28;20514;-51
2022/02/22 01:28:04;;;;;;;0.20;0.20;;;;;;;7.29;86.53;100308.94;5015213;28;20733;-50
2022/02/22 01:30:31;;;;;;;0.20;0.20;;;;;;;7.33;87.18;100305.34;5014787;28;20989;-50
2022/02/22 01:32:58;;;;;;;0.20;0.20;;;;;;;7.31;86.36;100297.44;5014905;28;20496;-50
2022/02/22 01:35:26;;;;;;;0.20;0.17;;;;;;;7.21;86.85;100316.09;5014757;28;20739;-50
2022/02/22 01:37:52;;;;;;;0.20;0.10;;;;;;;7.18;86.06;100319.66;5014549;28;20949;-52
2022/02/22 01:40:19;;;;;;;0.20;0.10;;;;;;;7.23;86.89;100320.44;5014541;28;20562;-50
2022/02/22 01:42:46;;;;;;;0.30;0.10;;;;;;;7.25;86.39;100309.84;5014546;28;20895;-50
2022/02/22 01:45:12;;;;;;;0.20;0.10;;;;;;;7.38;85.97;100325.50;5014566;28;20524;-50
2022/02/22 01:47:39;;;;;;;0.20;0.10;;;;;;;7.52;85.18;100317.34;5014732;28;20448;-51
2022/02/22 01:50:08;;;;;;;0.20;0.10;;;;;;;7.43;84.54;100323.69;5014449;28;20818;-50
2022/02/22 01:52:35;;;;;;;0.20;0.10;;;;;;;7.46;83.98;100319.25;5014406;28;20487;-50
2022/02/22 01:55:01;;;;;;;0.20;0.10;;;;;;;7.37;85.07;100326.41;5013835;28;20444;-50
2022/02/22 01:57:28;;;;;;;0.20;0.10;;;;;;;7.29;85.71;100322.16;5014381;28;20483;-50
2022/02/22 01:59:54;;;;;;;0.20;0.20;;;;;;;7.30;86.72;100326.53;5014228;28;20469;-50
2022/02/22 02:02:22;;;;;;;0.20;0.10;;;;;;;7.24;86.11;100330.13;5014443;28;20522;-51
2022/02/22 02:04:48;;;;;;;0.20;0.10;;;;;;;7.22;85.86;100328.41;5014051;28;20484;-50
2022/02/22 02:07:18;;;;;;;0.30;0.20;;;;;;;7.20;86.75;100330.19;5014297;28;20974;-50
2022/02/22 02:09:45;;;;;;;0.20;0.10;;;;;;;7.19;86.94;100334.63;5014329;28;20487;-50
2022/02/22 02:12:14;;;;;;;0.20;0.10;;;;;;;7.19;86.77;100341.66;5014428;28;20511;-50
2022/02/22 02:14:41;;;;;;;0.20;0.20;;;;;;;7.19;86.46;100350.47;5014208;28;20449;-50
2022/02/22 02:17:07;;;;;;;0.20;0.10;;;;;;;7.23;86.18;100351.28;5014207;28;20510;-50
2022/02/22 02:19:34;;;;;;;0.20;0.10;;;;;;;7.29;86.10;100351.22;5013741;28;20511;-49
2022/02/22 02:22:00;;;;;;;0.30;0.20;;;;;;;7.43;85.15;100354.53;5013907;28;20452;-50
2022/02/22 02:24:28;;;;;;;0.20;0.10;;;;;;;7.30;85.54;100363.56;5013709;28;20545;-51
2022/02/22 02:26:55;;;;;;;0.20;0.20;;;;;;;7.23;86.06;100360.09;5014037;28;20498;-50
2022/02/22 02:29:25;;;;;;;0.20;0.10;;;;;;;7.24;85.64;100367.13;5013651;28;20523;-50
2022/02/22 02:31:53;;;;;;;0.20;0.20;;;;;;;7.21;85.53;100368.94;5013688;28;20475;-50
2022/02/22 02:34:25;;;;;;;0.20;0.20;;;;;;;7.12;86.25;100373.47;5013634;28;20449;-50
2022/02/22 02:36:52;;;;;;;0.30;0.20;;;;;;;7.19;86.20;100368.97;5013851;28;20449;-50
2022/02/22 02:39:21;;;;;;;0.30;0.10;;;;;;;7.20;85.28;100378.66;5012290;28;20483;-50
2022/02/22 02:41:48;;;;;;;0.23;0.10;;;;;;;7.21;84.73;100379.53;5013638;28;20479;-50
2022/02/22 02:44:20;;;;;;;0.23;0.20;;;;;;;7.30;84.81;100377.66;5013396;28;20489;-50
2022/02/22 02:46:47;;;;;;;0.30;0.10;;;;;;;7.19;84.53;100381.31;5013378;28;20889;-50
2022/02/22 02:49:15;;;;;;;0.20;0.10;;;;;;;7.09;83.42;100381.44;5000923;28;20473;-50
2022/02/22 02:51:43;;;;;;;0.30;0.20;;;;;;;7.06;83.32;100385.88;5013418;28;20880;-50
2022/02/22 02:54:11;;;;;;;0.20;0.10;;;;;;;7.15;84.11;100391.06;5013631;28;20464;-50
2022/02/22 02:56:38;;;;;;;0.20;0.10;;;;;;;6.96;84.62;100392.19;5013331;28;20486;-50
2022/02/22 02:59:07;;;;;;;0.20;0.20;;;;;;;6.93;85.20;100394.88;5013204;28;20853;-50
2022/02/22 03:01:35;;;;;;;0.20;0.20;;;;;;;6.87;84.79;100389.66;5013528;28;20512;-49
2022/02/22 03:04:03;;;;;;;0.20;0.10;;;;;;;6.94;84.48;100399.25;5012073;28;20957;-50
2022/02/22 03:06:30;;;;;;;0.30;0.10;;;;;;;6.88;85.03;100397.56;5013154;28;20457;-49
2022/02/22 03:08:57;;;;;;;0.20;0.10;;;;;;;6.79;84.81;100395.91;5013063;28;20472;-50
2022/02/22 03:11:24;;;;;;;0.20;0.20;;;;;;;6.81;84.91;100398.53;5013034;28;20456;-50
2022/02/22 03:13:51;;;;;;;0.20;0.10;;;;;;;6.86;85.91;100391.44;5013349;28;20503;-50
2022/02/22 03:16:18;;;;;;;0.20;0.10;;;;;;;6.74;85.31;100400.38;5012059;28;20511;-50
2022/02/22 03:18:45;;;;;;;0.20;0.10;;;;;;;6.72;85.72;100396.88;5012871;28;20989;-50
2022/02/22 03:21:12;;;;;;;0.20;0.10;;;;;;;6.74;86.30;100395.09;5012832;28;20452;-50
2022/02/22 03:23:39;;;;;;;0.30;0.20;;;;;;;6.65;85.88;100400.47;5012953;28;20961;-49
2022/02/22 03:26:05;;;;;;;0.20;0.10;;;;;;;6.57;85.21;100412.88;5012591;28;20531;-50
2022/02/22 03:28:34;;;;;;;0.20;0.10;;;;;;;6.55;85.05;100414.66;5012960;28;20453;-50
2022/02/22 03:31:03;;;;;;;0.30;0.10;;;;;;;6.51;84.21;100416.44;5012930;28;20480;-50
2022/02/22 03:33:33;;;;;;;0.20;0.10;;;;;;;6.54;83.93;100429.63;5012901;28;20460;-50
2022/02/22 03:36:02;;;;;;;0.30;0.10;;;;;;;6.53;83.72;100435.78;5012651;28;20452;-50
2022/02/22 03:38:29;;;;;;;0.20;0.20;;;;;;;6.61;82.82;100440.13;5012496;28;20445;-50
2022/02/22 03:40:56;;;;;;;0.20;0.10;;;;;;;6.57;83.45;100447.19;5012604;28;20507;-50
2022/02/22 03:43:23;;;;;;;0.20;0.10;;;;;;;6.42;83.50;100453.50;5012870;28;20449;-50
2022/02/22 03:45:50;;;;;;;0.20;0.10;;;;;;;6.44;84.34;100446.47;5012265;28;20520;-50
2022/02/22 03:48:17;;;;;;;0.20;0.10;;;;;;;6.49;82.94;100455.22;5012689;28;20502;-50
2022/02/22 03:50:44;;;;;;;0.20;0.10;;;;;;;6.58;83.19;100461.28;5012477;28;20484;-50
2022/02/22 03:53:11;;;;;;;0.20;0.20;;;;;;;6.51;83.85;100460.47;5012438;28;20942;-49
2022/02/22 03:55:44;;;;;;;0.20;0.10;;;;;;;6.46;83.47;100472.84;4999350;28;20448;-50
2022/02/22 03:58:11;;;;;;;0.20;0.10;;;;;;;6.47;83.96;100459.63;5012494;28;20503;-50
2022/02/22 04:00:37;;;;;;;0.20;0.10;;;;;;;6.27;85.28;100464.19;5012440;28;20526;-50
2022/02/22 04:03:04;;;;;;;0.20;0.10;;;;;;;6.28;85.09;100465.06;5012256;28;20543;-50
2022/02/22 04:05:32;;;;;;;0.20;0.10;;;;;;;6.36;86.13;100472.03;5012348;28;20496;-50
2022/02/22 04:07:58;;;;;;;0.20;0.10;;;;;;;6.23;85.96;100462.47;5012282;28;20510;-50
2022/02/22 04:10:25;;;;;;;0.20;0.10;;;;;;;6.26;86.32;100466.84;5012506;28;20523;-50
2022/02/22 04:12:52;;;;;;;0.20;0.10;;;;;;;6.25;86.76;100476.53;5012288;28;20961;-50
2022/02/22 04:15:18;;;;;;;0.20;0.17;;;;;;;6.21;87.54;100483.59;5012472;28;20445;-50
2022/02/22 04:17:46;;;;;;;0.20;0.10;;;;;;;6.22;87.76;100480.06;5013211;28;20510;-50
2022/02/22 04:20:14;;;;;;;0.20;0.13;;;;;;;6.28;87.61;100489.69;5015032;28;20468;-50
2022/02/22 04:22:41;;;;;;;0.20;0.20;;;;;;;6.28;87.64;100496.75;5016043;28;20452;-50
2022/02/22 04:25:08;;;;;;;0.20;0.10;;;;;;;6.22;87.65;100506.47;5016453;28;20538;-50
2022/02/22 04:27:36;;;;;;;0.20;0.20;;;;;;;6.45;88.51;100502.78;5015044;28;20483;-50
2022/02/22 04:30:05;;;;;;;0.20;0.10;;;;;;;6.27;87.46;100519.63;5016426;28;20826;-50
2022/02/22 04:32:33;;;;;;;0.20;0.10;;;;;;;6.13;88.32;100519.72;5015990;28;20515;-49
2022/02/22 04:34:59;;;;;;;0.20;0.20;;;;;;;6.46;88.23;100520.38;5015976;28;20448;-50
2022/02/22 04:37:26;;;;;;;0.20;0.20;;;;;;;6.67;87.00;100517.53;5016171;28;20506;-49
2022/02/22 04:39:54;;;;;;;0.20;0.10;;;;;;;6.45;87.12;100529.19;5030021;22;20563;-50
2022/02/22 04:42:22;;;;;;;0.20;0.10;;;;;;;6.37;88.15;100539.78;5012006;28;20452;-50
2022/02/22 04:44:49;;;;;;;0.20;0.10;;;;;;;6.21;88.59;100540.78;5014227;28;20524;-47
2022/02/22 04:47:16;;;;;;;0.20;0.20;;;;;;;6.26;88.58;100548.66;5029508;28;20444;-47
2022/02/22 04:49:42;;;;;;;0.20;0.20;;;;;;;6.32;89.42;100551.28;5015975;28;20870;-47
2022/02/22 04:52:10;;;;;;;0.30;0.17;;;;;;;6.27;89.08;100553.94;5009206;28;20881;-48
2022/02/22 04:54:38;;;;;;;0.20;0.20;;;;;;;6.44;88.41;100552.06;5015782;28;20467;-49
2022/02/22 04:57:06;;;;;;;0.20;0.20;;;;;;;6.27;88.54;100548.66;5015433;28;20460;-48
2022/02/22 04:59:33;;;;;;;0.20;0.10;;;;;;;6.14;89.44;100555.78;5015788;28;20496;-48
2022/02/22 05:02:01;;;;;;;0.20;0.10;;;;;;;6.34;88.27;100568.88;5015778;28;20506;-48
2022/02/22 05:04:28;;;;;;;0.20;0.10;;;;;;;6.12;89.54;100572.50;5016350;28;20452;-48
2022/02/22 05:06:55;;;;;;;0.20;0.20;;;;;;;6.28;88.83;100573.28;5003381;28;21010;-48
2022/02/22 05:09:21;;;;;;;0.20;0.10;;;;;;;6.18;89.18;100569.84;5015438;28;20507;-48
2022/02/22 05:11:48;;;;;;;0.20;0.10;;;;;;;6.32;88.73;100568.00;5015400;28;20798;-48
2022/02/22 05:14:15;;;;;;;0.20;0.13;;;;;;;6.22;88.69;100574.22;5015348;28;20914;-48
2022/02/22 05:16:42;;;;;;;0.20;0.20;;;;;;;6.19;89.08;100577.75;5015292;28;20565;-48
2022/02/22 05:19:08;;;;;;;0.20;0.10;;;;;;;6.12;88.42;100581.31;5015268;28;20476;-48
2022/02/22 05:21:35;;;;;;;0.20;0.10;;;;;;;6.04;88.90;100583.13;5015511;28;20807;-48
2022/02/22 05:24:05;;;;;;;0.20;0.10;;;;;;;6.12;89.73;100588.34;5016008;28;21016;-48
2022/02/22 05:26:33;;;;;;;0.20;0.10;;;;;;;6.02;88.72;100591.91;5014986;28;21095;-48
2022/02/22 05:29:00;;;;;;;0.20;0.20;;;;;;;6.12;89.28;100588.34;5014517;28;20537;-48
2022/02/22 05:31:26;;;;;;;0.20;0.10;;;;;;;6.11;89.87;100584.84;5014679;28;20938;-48
2022/02/22 05:33:53;;;;;;;0.20;0.10;;;;;;;5.94;90.22;100590.22;5015287;28;20486;-48
2022/02/22 05:36:20;;;;;;;0.20;0.20;;;;;;;6.13;88.65;100588.34;5009148;28;20867;-48
2022/02/22 05:38:47;;;;;;;0.20;0.20;;;;;;;6.10;88.72;100598.91;5014901;28;21015;-48
2022/02/22 05:41:17;;;;;;;0.20;0.10;;;;;;;5.99;88.86;100603.38;5014855;28;20534;-48
2022/02/22 05:43:48;;;;;;;0.20;0.10;;;;;;;5.99;89.29;100600.72;5014626;28;20456;-48
2022/02/22 05:46:15;;;;;;;0.30;0.10;;;;;;;5.96;89.16;100610.44;5005345;28;20488;-48
2022/02/22 05:48:42;;;;;;;0.20;0.10;;;;;;;6.23;88.52;100608.50;5014502;28;20444;-48
2022/02/22 05:51:12;;;;;;;0.20;0.10;;;;;;;6.05;89.10;100613.91;5011714;28;20544;-48
2022/02/22 05:53:40;;;;;;;0.20;0.10;;;;;;;5.90;89.69;100627.19;5010704;28;20456;-48
2022/02/22 05:56:06;;;;;;;0.20;0.20;;;;;;;5.90;89.63;100622.78;5014383;28;20452;-48
2022/02/22 05:58:33;;;;;;;0.20;0.10;;;;;;;5.93;90.08;100625.38;5014350;28;20929;-48
2022/02/22 06:01:00;;;;;;;0.20;0.13;;;;;;;5.88;90.19;100621.84;5015127;28;20863;-48
2022/02/22 06:03:27;;;;;;;0.20;0.10;;;;;;;5.73;89.88;100623.66;5014540;28;20531;-48
2022/02/22 06:05:54;;;;;;;0.20;0.10;;;;;;;5.72;90.38;100633.34;5005359;28;20497;-48
2022/02/22 06:08:21;;;;;;;0.20;0.10;;;;;;;5.64;91.29;100633.38;5011708;28;20511;-48
2022/02/22 06:10:48;;;;;;;0.20;0.20;;;;;;;5.59;92.12;100643.03;5014687;28;20535;-48
2022/02/22 06:13:18;;;;;;;0.20;0.20;;;;;;;5.53;92.09;100636.91;5014977;28;20548;-48
2022/02/22 06:15:45;;;;;;;0.20;0.10;;;;;;;5.56;91.85;100642.19;5014819;28;20444;-48
2022/02/22 06:18:11;;;;;;;0.20;0.10;;;;;;;5.58;91.50;100648.31;5014149;28;20459;-48
2022/02/22 06:20:39;;;;;;;0.20;0.10;;;;;;;5.50;91.95;100651.00;5015034;28;20508;-48
2022/02/22 06:23:06;;;;;;;0.20;0.10;;;;;;;5.54;92.57;100658.00;5014070;28;20459;-48
2022/02/22 06:25:33;;;;;;;0.20;0.10;;;;;;;5.47;92.60;100664.16;5014168;28;20911;-48
2022/02/22 06:28:00;;;;;;;0.20;0.10;;;;;;;5.51;92.49;100673.84;5014267;28;20464;-48
2022/02/22 06:30:32;;;;;;;0.30;0.23;;;;;;;5.56;92.08;100671.19;5013943;28;20990;-48
2022/02/22 06:32:59;;;;;;;0.20;0.20;;;;;;;5.73;91.88;100679.91;5013818;28;20511;-49
2022/02/22 06:35:26;;;;;;;0.20;0.20;;;;;;;5.56;91.60;100677.34;5008042;28;20445;-49
2022/02/22 06:37:52;;;;;;;0.20;0.10;;;;;;;5.58;92.61;100680.84;5012768;28;20729;-49
2022/02/22 06:40:19;;;;;;;0.20;0.10;;;;;;;5.48;92.07;100691.41;5013355;28;20477;-48
2022/02/22 06:42:51;;;;;;;0.20;0.20;;;;;;;5.51;92.12;100683.50;5013722;28;20453;-49
2022/02/22 06:45:17;;;;;;;0.20;0.20;;;;;;;5.27;93.00;100689.69;5003933;28;20489;-49
2022/02/22 06:47:44;;;;;;;0.20;0.10;;;;;;;5.19;93.75;100689.66;5013682;28;20457;-48
2022/02/22 06:50:13;;;;;;;0.20;0.10;;;;;;;5.27;93.79;100690.56;5013255;28;20469;-48
2022/02/22 06:52:40;;;;;;;0.20;0.10;;;;;;;5.35;94.07;100688.81;5006698;28;20821;-48
2022/02/22 06:55:09;;;;;;;0.20;0.10;;;;;;;5.36;93.88;100692.31;5013716;28;20452;-51
2022/02/22 06:57:36;;;;;;;0.20;0.10;;;;;;;5.45;93.62;100701.94;5014707;28;20456;-48
2022/02/22 07:00:09;;;;;;;0.20;0.10;;;;;;;5.68;91.75;100694.88;5013069;28;20888;-49
2022/02/22 07:02:38;;;;;;;0.20;0.20;;;;;;;5.54;92.96;100705.47;5013408;28;20448;-49
2022/02/22 07:05:06;;;;;;;0.20;0.10;;;;;;;5.63;92.39;100709.84;5010240;28;20457;-49
2022/02/22 07:07:33;;;;;;;0.20;0.20;;;;;;;5.57;93.41;100707.22;5003844;28;21277;-49
2022/02/22 07:10:00;;;;;;;0.20;0.10;;;;;;;5.59;92.84;100716.88;5013104;28;20480;-49
2022/02/22 07:12:26;;;;;;;0.20;0.10;;;;;;;5.60;93.03;100723.91;5013237;28;20507;-49
2022/02/22 07:14:53;;;;;;;0.20;0.10;;;;;;;5.48;93.76;100721.31;5013113;28;20452;-49
2022/02/22 07:17:21;;;;;;;0.20;0.20;;;;;;;5.52;93.59;100727.44;5013563;28;20510;-48
2022/02/22 07:19:48;;;;;;;0.20;0.17;;;;;;;5.56;93.38;100734.47;5013542;28;20893;-49
2022/02/22 07:22:14;;;;;;;0.40;0.37;;;;;;;5.71;93.59;100736.19;5013307;28;20448;-49
2022/02/22 07:24:41;;;;;;;0.20;0.10;;;;;;;5.73;93.31;100745.84;5013114;28;20488;-49
2022/02/22 07:27:08;;;;;;;0.20;0.20;;;;;;;5.87;92.43;100744.06;5013119;28;20516;-49
2022/02/22 07:29:34;;;;;;;0.20;0.10;;;;;;;5.92;92.80;100745.00;5012790;28;20539;-49
2022/02/22 07:32:01;;;;;;;0.20;0.10;;;;;;;6.24;91.63;100752.81;5012735;28;20463;-49
2022/02/22 07:34:28;;;;;;;0.20;0.10;;;;;;;6.24;90.07;100752.81;5012888;28;20455;-49
2022/02/22 07:36:55;;;;;;;0.20;0.10;;;;;;;6.39;89.01;100751.00;5007107;28;21024;-49
2022/02/22 07:39:21;;;;;;;0.20;0.10;;;;;;;6.34;91.41;100755.41;5012388;28;20484;-49
2022/02/22 07:41:48;;;;;;;0.20;0.20;;;;;;;6.55;89.02;100752.66;5012798;28;20485;-49
2022/02/22 07:44:15;;;;;;;0.20;0.13;;;;;;;6.43;88.86;100758.88;5010502;28;20448;-49
2022/02/22 07:46:42;;;;;;;0.20;0.20;;;;;;;6.57;88.60;100756.19;5005375;28;20491;-49
2022/02/22 07:49:10;;;;;;;0.20;0.10;;;;;;;6.43;89.32;100766.81;5012434;28;20468;-49
2022/02/22 07:51:36;;;;;;;1.17;0.80;;;;;;;6.68;88.51;100762.28;5005120;28;20465;-49
2022/02/22 07:54:03;;;;;;;0.20;0.10;;;;;;;6.48;90.00;100772.97;5011756;28;20456;-49
2022/02/22 07:56:31;;;;;;;0.20;0.20;;;;;;;6.35;89.17;100767.75;5012740;28;20449;-48
2022/02/22 07:58:58;;;;;;;0.20;0.10;;;;;;;6.37;89.90;100773.88;5012677;28;20460;-48
2022/02/22 08:01:25;;;;;;;0.20;0.10;;;;;;;6.40;90.21;100769.47;5012906;28;20455;-49
2022/02/22 08:03:51;;;;;;;0.20;0.10;;;;;;;6.79;89.71;100776.31;4986887;28;20516;-49
2022/02/22 08:06:18;;;;;;;0.30;0.20;;;;;;;7.25;89.08;100764.56;4999784;28;20493;-48
2022/02/22 08:08:47;;;;;;;0.20;0.17;;;;;;;7.14;88.56;100769.97;4999943;28;20829;-49
2022/02/22 08:11:14;;;;;;;0.20;0.10;;;;;;;7.08;87.71;100770.88;5011129;28;20516;-49
2022/02/22 08:13:41;;;;;;;0.20;0.20;;;;;;;7.24;88.39;100771.63;5012332;28;20456;-49
2022/02/22 08:16:08;;;;;;;0.20;0.17;;;;;;;7.25;88.01;100767.22;5012599;28;20445;-51
2022/02/22 08:18:34;;;;;;;0.20;0.10;;;;;;;7.47;87.22;100771.47;5012362;28;21024;-50
2022/02/22 08:21:01;;;;;;;0.20;0.10;;;;;;;7.41;87.42;100772.41;5012331;28;20465;-49
2022/02/22 08:23:31;;;;;;;0.20;0.20;;;;;;;7.57;86.15;100773.16;5012361;28;20528;-50
2022/02/22 08:25:59;;;;;;;0.20;0.10;;;;;;;7.47;86.89;100766.19;5012063;28;20889;-49
2022/02/22 08:28:26;;;;;;;0.20;0.10;;;;;;;7.52;87.17;100769.66;5012505;28;20498;-49
2022/02/22 08:30:53;;;;;;;0.20;0.10;;;;;;;7.60;87.28;100769.59;5012517;28;20475;-49
2022/02/22 08:33:20;;;;;;;0.20;0.20;;;;;;;7.75;88.00;100768.56;5012532;28;20460;-49
2022/02/22 08:35:47;;;;;;;0.20;0.10;;;;;;;7.88;86.76;100768.44;5006109;28;20456;-49
2022/02/22 08:38:15;;;;;;;0.20;0.10;;;;;;;7.94;87.04;100772.78;5011116;28;20449;-49
2022/02/22 08:40:43;;;;;;;0.20;0.10;;;;;;;8.16;85.69;100771.69;5011686;28;20488;-49
2022/02/22 08:43:10;;;;;;;0.30;0.20;;;;;;;8.20;85.47;100776.03;5012449;28;20448;-49
2022/02/22 08:45:37;;;;;;;0.20;0.20;;;;;;;8.30;85.06;100784.75;5003306;28;20448;-50
2022/02/22 08:48:04;;;;;;;0.20;0.10;;;;;;;8.63;84.88;100769.38;5012284;28;20949;-50
2022/02/22 08:50:31;;;;;;;1.07;1.07;;;;;;;8.57;84.54;100776.53;5011886;28;20468;-50
2022/02/22 08:52:59;;;;;;;0.30;0.20;;;;;;;8.60;84.45;100780.91;5005190;28;20454;-49
2022/02/22 08:55:26;;;;;;;0.30;0.20;;;;;;;8.55;84.10;100788.91;5011696;28;20452;-50
2022/02/22 08:57:53;;;;;;;0.27;0.17;;;;;;;8.48;84.36;100789.00;5012105;28;20440;-50
2022/02/22 09:00:20;;;;;;;0.30;0.20;;;;;;;8.43;84.82;100778.47;5011955;28;20602;-50
2022/02/22 09:02:53;;;;;;;0.20;0.10;;;;;;;8.68;84.96;100775.53;5011984;28;20491;-50
2022/02/22 09:05:20;;;;;;;0.30;0.20;;;;;;;8.66;84.23;100772.91;5009963;28;20872;-50
2022/02/22 09:07:46;;;;;;;0.30;0.20;;;;;;;8.71;84.57;100767.53;5008046;28;20504;-50
2022/02/22 09:10:13;;;;;;;0.43;0.43;;;;;;;8.69;84.18;100764.03;5015152;28;20522;-50
2022/02/22 09:12:43;;;;;;;0.30;0.20;;;;;;;8.56;84.71;100766.81;5015511;28;20892;-49
2022/02/22 09:15:11;;;;;;;0.20;0.20;;;;;;;8.79;84.81;100760.34;5015411;28;20948;-50
2022/02/22 09:17:38;;;;;;;0.30;0.10;;;;;;;8.72;85.01;100769.28;5015039;28;20445;-50
2022/02/22 09:20:10;;;;;;;0.30;0.20;;;;;;;8.84;84.59;100756.72;5015070;28;20468;-50
2022/02/22 09:22:37;;;;;;;0.50;0.50;;;;;;;8.70;84.49;100757.81;5014842;28;20448;-50
2022/02/22 09:25:06;;;;;;;0.20;0.20;;;;;;;8.82;84.78;100758.53;5015000;28;20491;-50
2022/02/22 09:27:33;;;;;;;0.30;0.20;;;;;;;8.82;84.00;100755.88;5014800;28;20496;-50
2022/02/22 09:30:00;;;;;;;0.30;0.20;;;;;;;8.81;83.58;100758.56;5015094;28;20468;-49
2022/02/22 09:32:27;;;;;;;0.30;0.20;;;;;;;8.90;83.92;100755.75;5014754;28;20942;-50
2022/02/22 09:34:54;;;;;;;0.30;0.20;;;;;;;8.84;84.05;100758.50;5013397;28;20949;-50
2022/02/22 09:37:21;;;;;;;0.30;0.20;;;;;;;9.00;83.58;100753.84;5010140;28;20448;-50
2022/02/22 09:39:47;;;;;;;0.30;0.20;;;;;;;8.92;84.23;100745.16;5014553;28;20516;-50
2022/02/22 09:42:14;;;;;;;0.30;0.20;;;;;;;9.04;83.71;100747.59;5014788;28;20533;-50
2022/02/22 09:44:41;;;;;;;0.30;0.20;;;;;;;9.09;83.67;100748.44;5009022;28;20453;-51
2022/02/22 09:47:09;;;;;;;0.30;0.20;;;;;;;9.25;82.31;100749.94;5011198;28;20480;-50
2022/02/22 09:49:36;;;;;;;0.30;0.20;;;;;;;9.29;82.06;100753.41;5014652;28;20556;-52
2022/02/22 09:52:03;;;;;;;0.30;0.20;;;;;;;9.26;82.35;100751.69;5007742;28;20540;-53
2022/02/22 09:54:30;;;;;;;0.30;0.20;;;;;;;9.29;82.55;100748.09;5014410;28;20456;-54
2022/02/22 09:56:57;;;;;;;0.30;0.20;;;;;;;9.54;82.72;100756.53;5001538;28;20490;-52
2022/02/22 09:59:24;;;;;;;0.30;0.20;;;;;;;9.50;82.33;100761.03;5014250;28;20468;-52
2022/02/22 10:01:53;;;;;;;0.30;0.20;;;;;;;9.56;81.80;100754.72;5009296;28;20479;-52
2022/02/22 10:04:21;;;;;;;0.30;0.20;;;;;;;9.34;80.90;100749.81;4994054;28;20485;-52
2022/02/22 10:06:50;;;;;;;0.30;0.17;;;;;;;9.53;80.39;100745.06;4998788;28;20579;-51
2022/02/22 10:09:17;;;;;;;0.30;0.20;;;;;;;9.46;80.31;100741.66;5014322;28;20473;-51
2022/02/22 10:11:45;;;;;;;0.30;0.20;;;;;;;9.49;80.52;100746.03;5014288;28;20448;-51
2022/02/22 10:14:21;;;;;;;0.30;0.20;;;;;;;9.44;80.19;100743.41;5014137;28;20527;-52
2022/02/22 10:16:49;;;;;;;0.30;0.20;;;;;;;9.72;79.78;100733.19;5013285;28;20444;-52
2022/02/22 10:19:20;;;;;;;0.30;0.20;;;;;;;9.74;79.50;100741.16;5014223;28;20471;-51
2022/02/22 10:21:54;;;;;;;0.30;0.20;;;;;;;9.71;79.60;100752.69;4988146;28;20453;-52
2022/02/22 10:24:24;;;;;;;0.30;0.20;;;;;;;9.90;79.12;100736.44;5013979;28;20447;-51
2022/02/22 10:27:03;;;;;;;0.30;0.20;;;;;;;9.82;78.51;100735.69;5013753;28;20918;-52
2022/02/22 10:29:34;;;;;;;0.30;0.20;;;;;;;9.95;79.12;100734.56;5013666;28;20468;-51
2022/02/22 10:32:16;;;;;;;0.30;0.20;;;;;;;9.99;79.61;100734.47;5013948;28;20453;-52
2022/02/22 10:34:43;;;;;;;0.30;0.20;;;;;;;10.02;78.59;100729.13;5012248;28;20453;-52
2022/02/22 10:37:11;;;;;;;0.30;0.20;;;;;;;10.12;78.06;100721.84;5000885;28;20511;-51
2022/02/22 10:39:38;;;;;;;0.30;0.20;;;;;;;10.13;78.73;100728.91;5014047;28;20499;-51
2022/02/22 10:42:05;;;;;;;0.30;0.20;;;;;;;10.21;77.64;100727.00;5009482;28;20454;-51
2022/02/22 10:44:39;;;;;;;0.30;0.20;;;;;;;10.08;78.27;100720.16;4991756;28;20453;-50
2022/02/22 10:47:19;;;;;;;0.30;0.20;;;;;;;10.40;78.37;100716.88;5009636;28;20862;-50
2022/02/22 10:49:48;;;;;;;0.30;0.20;;;;;;;10.14;78.05;100712.03;5013405;28;20472;-50
2022/02/22 10:52:16;;;;;;;0.30;0.20;;;;;;;10.33;78.22;100715.25;5006556;28;20456;-50
2022/02/22 10:54:43;;;;;;;0.30;0.20;;;;;;;10.45;77.84;100701.72;5013672;28;20622;-50
2022/02/22 10:57:10;;;;;;;0.30;0.20;;;;;;;10.34;77.64;100699.28;5013246;28;20444;-50
2022/02/22 10:59:37;;;;;;;0.30;0.20;;;;;;;10.34;77.34;100707.25;5013213;28;21012;-50
2022/02/22 11:02:04;;;;;;;0.30;0.20;;;;;;;10.27;78.15;100700.28;5013232;28;20463;-50
2022/02/22 11:04:35;;;;;;;0.30;0.20;;;;;;;10.20;78.61;100693.34;5013135;28;21012;-50
2022/02/22 11:07:04;;;;;;;0.30;0.20;;;;;;;10.03;79.11;100706.09;5001427;28;20842;-50
2022/02/22 11:09:34;;;;;;;0.30;0.20;;;;;;;10.25;79.62;100695.94;5013018;28;20711;-50
2022/02/22 11:12:05;;;;;;;0.30;0.20;;;;;;;10.34;78.73;100691.31;5013172;28;20488;-50
2022/02/22 11:14:35;;;;;;;0.30;0.20;;;;;;;10.41;78.68;100684.06;5012998;28;20863;-50
2022/02/22 11:17:24;;;;;;;0.57;0.57;;;;;;;10.23;79.31;100685.34;5013068;28;20449;-50
2022/02/22 11:19:52;;;;;;;0.30;0.20;;;;;;;10.49;78.71;100686.56;5012909;28;20501;-51
2022/02/22 11:22:26;;;;;;;0.30;0.20;;;;;;;10.65;79.26;100686.19;5012789;28;20540;-50
2022/02/22 11:25:00;;;;;;;0.30;0.20;;;;;;;10.44;79.13;100696.44;4988215;28;20925;-50
2022/02/22 11:27:38;;;;;;;0.30;0.20;;;;;;;10.54;78.92;100695.31;5011785;28;20567;-51
2022/02/22 11:30:10;;;;;;;0.30;0.20;;;;;;;10.39;79.11;100704.50;5011638;28;20842;-51
2022/02/22 11:33:06;;;;;;;0.30;0.20;;;;;;;10.39;78.91;100707.16;5013111;28;20456;-51
2022/02/22 11:35:47;;;;;;;0.30;0.20;;;;;;;10.37;79.18;100712.50;5006429;28;20454;-51